createdAt,value
2019-02-19T00:00:47.235Z,9.05
2019-02-19T00:03:16.583Z,9.63
2019-02-19T00:05:45.947Z,7.95
2019-02-19T00:08:15.295Z,9.60
2019-02-19T00:10:44.650Z,9.50
2019-02-19T00:13:13.990Z,8.60
2019-02-19T00:15:43.358Z,9.40
2019-02-19T00:18:12.702Z,9.55
2019-02-19T00:20:42.059Z,9.45
2019-02-19T00:23:11.435Z,10.65
2019-02-19T00:25:40.799Z,10.95
2019-02-19T00:28:10.143Z,10.60
2019-02-19T00:30:39.502Z,9.18
2019-02-19T00:33:08.841Z,9.55
2019-02-19T00:35:38.203Z,8.48
2019-02-19T00:38:07.562Z,7.65
2019-02-19T00:40:36.943Z,9.48
2019-02-19T00:43:06.286Z,9.78
2019-02-19T00:45:35.655Z,10.60
2019-02-19T00:48:05.090Z,9.65
2019-02-19T00:50:34.454Z,8.68
2019-02-19T00:53:03.803Z,9.85
2019-02-19T00:55:33.171Z,12.73
2019-02-19T00:58:02.507Z,10.13
2019-02-19T01:00:31.870Z,9.08
2019-02-19T01:03:01.203Z,9.00
2019-02-19T01:05:30.543Z,9.60
2019-02-19T01:07:59.913Z,10.20
2019-02-19T01:10:29.294Z,11.20
2019-02-19T01:12:58.625Z,10.85
2019-02-19T01:15:27.967Z,13.22
2019-02-19T01:17:57.335Z,11.65
2019-02-19T01:20:26.684Z,12.25
2019-02-19T01:22:56.043Z,10.63
2019-02-19T01:25:25.383Z,12.90
2019-02-19T01:27:54.751Z,10.53
2019-02-19T01:30:24.094Z,13.85
2019-02-19T01:32:53.480Z,14.50
2019-02-19T01:35:22.819Z,11.93
2019-02-19T01:37:52.214Z,11.65
2019-02-19T01:40:21.554Z,11.85
2019-02-19T01:42:50.906Z,11.57
2019-02-19T01:45:20.242Z,11.25
2019-02-19T01:47:49.610Z,11.05
2019-02-19T01:50:18.960Z,10.13
2019-02-19T01:52:48.322Z,10.05
2019-02-19T01:55:17.667Z,10.15
2019-02-19T01:57:47.030Z,11.75
2019-02-19T02:00:16.372Z,12.37
2019-02-19T02:02:45.787Z,11.50
2019-02-19T02:05:15.134Z,11.53
2019-02-19T02:07:44.494Z,10.70
2019-02-19T02:10:13.847Z,10.88
2019-02-19T02:12:43.207Z,10.08
2019-02-19T02:15:12.564Z,10.88
2019-02-19T02:17:41.919Z,10.93
2019-02-19T02:20:11.274Z,10.70
2019-02-19T02:22:40.638Z,13.50
2019-02-19T02:25:09.991Z,13.72
2019-02-19T02:27:39.372Z,12.58
2019-02-19T02:30:08.780Z,12.37
2019-02-19T02:32:38.123Z,11.75
2019-02-19T02:35:07.499Z,9.40
2019-02-19T02:37:36.896Z,11.75
2019-02-19T02:40:06.315Z,11.45
2019-02-19T02:42:35.658Z,10.40
2019-02-19T02:45:05.119Z,9.30
2019-02-19T02:47:34.457Z,10.90
2019-02-19T02:50:03.824Z,9.88
2019-02-19T02:52:33.152Z,9.18
2019-02-19T02:55:02.519Z,9.03
2019-02-19T02:57:31.862Z,11.43
2019-02-19T03:00:01.223Z,9.93
2019-02-19T03:02:30.562Z,11.28
2019-02-19T03:04:59.928Z,9.98
2019-02-19T03:07:44.763Z,11.65
2019-02-19T03:10:14.126Z,12.25
2019-02-19T03:12:43.467Z,11.75
2019-02-19T03:15:13.138Z,10.45
2019-02-19T03:17:42.469Z,11.15
2019-02-19T03:20:11.830Z,10.08
2019-02-19T03:22:41.166Z,11.40
2019-02-19T03:25:10.542Z,12.50
2019-02-19T03:27:39.880Z,10.35
2019-02-19T03:30:10.884Z,10.13
2019-02-19T03:32:40.258Z,10.45
2019-02-19T03:35:09.610Z,8.35
2019-02-19T03:37:38.956Z,10.03
2019-02-19T03:40:08.635Z,9.90
2019-02-19T03:42:38.030Z,10.00
2019-02-19T03:45:08.665Z,8.93
2019-02-19T03:47:38.005Z,8.85
2019-02-19T03:50:07.367Z,10.18
2019-02-19T03:52:36.708Z,9.85
2019-02-19T03:55:06.117Z,10.45
2019-02-19T03:57:35.464Z,11.65
2019-02-19T04:00:04.953Z,11.53
2019-02-19T04:02:34.294Z,11.05
2019-02-19T04:05:03.663Z,11.70
2019-02-19T04:07:33.016Z,11.75
2019-02-19T04:10:02.351Z,12.30
2019-02-19T04:12:31.689Z,12.65
2019-02-19T04:15:01.021Z,14.13
2019-02-19T04:17:30.381Z,14.90
2019-02-19T04:19:59.722Z,12.40
2019-02-19T04:22:29.108Z,12.73
2019-02-19T04:24:58.448Z,12.63
2019-02-19T04:27:27.802Z,11.43
2019-02-19T04:29:57.143Z,10.65
2019-02-19T04:32:26.548Z,11.00
2019-02-19T04:34:55.882Z,9.85
2019-02-19T04:37:25.251Z,10.65
2019-02-19T04:39:59.655Z,10.95
2019-02-19T04:42:29.036Z,10.93
2019-02-19T04:44:58.379Z,12.63
2019-02-19T04:47:27.769Z,11.70
2019-02-19T04:49:57.119Z,14.50
2019-02-19T04:52:26.484Z,14.38
2019-02-19T04:54:55.843Z,14.35
2019-02-19T04:57:25.208Z,13.25
2019-02-19T04:59:54.547Z,16.90
2019-02-19T05:02:23.956Z,16.20
2019-02-19T05:04:53.295Z,14.60
2019-02-19T05:07:22.655Z,13.93
2019-02-19T05:09:51.993Z,13.50
2019-02-19T05:12:21.396Z,11.53
2019-02-19T05:14:50.755Z,13.75
2019-02-19T05:17:20.121Z,12.55
2019-02-19T05:19:49.469Z,13.28
2019-02-19T05:22:18.836Z,12.65
2019-02-19T05:24:48.182Z,12.82
2019-02-19T05:27:17.547Z,12.13
2019-02-19T05:29:46.895Z,11.85
2019-02-19T05:32:16.284Z,11.85
2019-02-19T05:34:45.635Z,11.15
2019-02-19T05:37:14.988Z,12.23
2019-02-19T05:39:44.376Z,13.78
2019-02-19T05:42:13.728Z,13.45
2019-02-19T05:44:43.135Z,12.07
2019-02-19T05:47:12.483Z,12.43
2019-02-19T05:49:41.859Z,13.00
2019-02-19T05:52:11.215Z,12.30
2019-02-19T05:54:40.639Z,11.80
2019-02-19T05:57:09.983Z,11.50
2019-02-19T05:59:39.340Z,12.00
2019-02-19T06:02:08.691Z,11.45
2019-02-19T06:04:38.063Z,11.90
2019-02-19T06:07:07.403Z,11.57
2019-02-19T06:09:36.776Z,11.48
2019-02-19T06:12:06.123Z,9.45
2019-02-19T06:14:35.495Z,10.90
2019-02-19T06:17:04.850Z,10.40
2019-02-19T06:19:34.222Z,11.75
2019-02-19T06:22:03.558Z,12.85
2019-02-19T06:24:32.939Z,10.90
2019-02-19T06:27:02.295Z,11.97
2019-02-19T06:29:31.643Z,11.80
2019-02-19T06:32:00.983Z,11.33
2019-02-19T06:34:30.360Z,11.12
2019-02-19T06:36:59.703Z,10.93
2019-02-19T06:39:29.100Z,12.45
2019-02-19T06:41:58.450Z,14.23
2019-02-19T06:44:27.823Z,14.35
2019-02-19T06:46:57.175Z,14.58
2019-02-19T06:49:26.539Z,13.03
2019-02-19T06:51:55.895Z,13.22
2019-02-19T06:54:25.259Z,12.37
2019-02-19T06:56:54.607Z,11.55
2019-02-19T06:59:26.033Z,11.03
2019-02-19T07:02:20.427Z,11.57
2019-02-19T07:04:56.099Z,11.70
2019-02-19T07:07:25.447Z,11.30
2019-02-19T07:09:54.832Z,12.45
2019-02-19T07:12:24.192Z,10.40
2019-02-19T07:14:53.588Z,10.70
2019-02-19T07:17:22.947Z,11.53
2019-02-19T07:19:52.307Z,10.95
2019-02-19T07:22:21.659Z,17.15
2019-02-19T07:24:50.999Z,19.98
2019-02-19T07:27:20.376Z,17.35
2019-02-19T07:29:49.722Z,14.80
2019-02-19T07:32:19.107Z,19.57
2019-02-19T07:34:48.464Z,17.40
2019-02-19T07:37:17.844Z,27.27
2019-02-19T07:39:47.216Z,40.12
2019-02-19T07:42:16.584Z,33.40
2019-02-19T07:44:45.995Z,36.25
2019-02-19T07:47:15.336Z,38.90
2019-02-19T07:49:44.689Z,33.58
2019-02-19T07:52:14.056Z,37.70
2019-02-19T07:54:43.400Z,35.78
2019-02-19T07:57:12.846Z,36.55
2019-02-19T07:59:42.188Z,36.93
2019-02-19T08:02:11.564Z,36.70
2019-02-19T08:04:40.907Z,35.20
2019-02-19T08:07:10.285Z,34.03
2019-02-19T08:09:39.629Z,28.73
2019-02-19T08:12:08.991Z,28.40
2019-02-19T08:14:38.340Z,29.18
2019-02-19T08:17:07.715Z,25.72
2019-02-19T08:19:37.063Z,20.85
2019-02-19T08:22:06.432Z,21.77
2019-02-19T08:24:35.779Z,21.05
2019-02-19T08:27:05.205Z,17.75
2019-02-19T08:29:34.551Z,18.02
2019-02-19T08:32:03.923Z,19.12
2019-02-19T08:34:33.264Z,16.60
2019-02-19T08:37:02.635Z,16.12
2019-02-19T08:39:31.995Z,20.63
2019-02-19T08:42:01.370Z,20.77
2019-02-19T08:44:30.716Z,21.07
2019-02-19T08:47:00.075Z,22.40
2019-02-19T08:49:29.435Z,20.63
2019-02-19T08:51:58.804Z,21.93
2019-02-19T08:54:28.166Z,21.13
2019-02-19T08:56:57.527Z,19.53
2019-02-19T08:59:26.867Z,17.80
2019-02-19T09:01:56.239Z,17.23
2019-02-19T09:04:25.577Z,20.00
2019-02-19T09:06:54.970Z,21.87
2019-02-19T09:09:24.307Z,19.33
2019-02-19T09:11:53.649Z,18.57
2019-02-19T09:14:23.012Z,19.93
2019-02-19T09:16:52.347Z,22.47
2019-02-19T09:19:21.707Z,21.90
2019-02-19T09:21:51.103Z,19.37
2019-02-19T09:24:20.463Z,20.83
2019-02-19T09:26:49.806Z,21.33
2019-02-19T09:29:19.209Z,27.47
2019-02-19T09:31:48.543Z,29.20
2019-02-19T09:34:17.911Z,29.00
2019-02-19T09:36:47.265Z,24.77
2019-02-19T09:39:16.648Z,22.40
2019-02-19T09:41:45.991Z,19.60
2019-02-19T09:44:15.351Z,19.67
2019-02-19T09:46:44.722Z,16.70
2019-02-19T09:49:14.087Z,17.37
2019-02-19T09:51:43.432Z,15.53
2019-02-19T09:54:12.795Z,14.97
2019-02-19T09:56:42.148Z,18.03
2019-02-19T09:59:11.428Z,20.00
2019-02-19T10:01:40.795Z,19.93
2019-02-19T10:04:10.153Z,22.97
2019-02-19T10:06:39.499Z,17.33
2019-02-19T10:09:09.699Z,20.00
2019-02-19T10:11:39.055Z,18.03
2019-02-19T10:14:08.411Z,18.10
2019-02-19T10:16:41.628Z,15.60
2019-02-19T10:19:08.768Z,16.90
2019-02-19T10:21:38.123Z,16.57
2019-02-19T10:24:07.491Z,15.80
2019-02-19T10:26:36.832Z,14.43
2019-02-19T10:29:06.200Z,15.03
2019-02-19T10:31:35.531Z,15.50
2019-02-19T10:34:04.895Z,15.27
2019-02-19T10:36:34.228Z,13.70
2019-02-19T10:39:04.780Z,14.80
2019-02-19T10:41:34.119Z,12.83
2019-02-19T10:44:03.459Z,14.17
2019-02-19T10:46:32.831Z,13.40
2019-02-19T10:49:02.170Z,12.53
2019-02-19T10:51:31.535Z,15.70
2019-02-19T10:54:00.884Z,13.27
2019-02-19T10:56:30.250Z,14.80
2019-02-19T10:58:59.600Z,13.23
2019-02-19T11:01:28.969Z,15.30
2019-02-19T11:03:58.331Z,12.37
2019-02-19T11:06:27.700Z,16.87
2019-02-19T11:08:57.049Z,16.20
2019-02-19T11:11:26.404Z,13.50
2019-02-19T11:13:55.747Z,16.83
2019-02-19T11:16:25.112Z,14.80
2019-02-19T11:18:54.459Z,13.60
2019-02-19T11:21:23.811Z,14.97
2019-02-19T11:23:54.041Z,13.17
2019-02-19T11:26:23.397Z,13.87
2019-02-19T11:28:52.760Z,14.40
2019-02-19T11:31:22.107Z,11.57
2019-02-19T11:33:51.460Z,13.30
2019-02-19T11:36:20.824Z,13.07
2019-02-19T11:38:50.199Z,13.37
2019-02-19T11:41:19.571Z,15.47
2019-02-19T11:43:48.920Z,13.80
2019-02-19T11:46:18.280Z,15.37
2019-02-19T11:48:47.662Z,15.70
2019-02-19T11:51:17.031Z,14.80
2019-02-19T11:53:46.380Z,16.10
2019-02-19T11:56:15.745Z,21.40
2019-02-19T11:58:45.102Z,27.00
2019-02-19T12:01:14.455Z,31.37
2019-02-19T12:03:43.804Z,29.33
2019-02-19T12:06:13.152Z,23.33
2019-02-19T12:08:42.518Z,18.47
2019-02-19T12:11:11.855Z,15.43
2019-02-19T12:13:41.219Z,12.27
2019-02-19T12:16:10.562Z,11.53
2019-02-19T12:18:45.984Z,11.17
2019-02-19T12:21:10.904Z,10.90
2019-02-19T12:23:40.276Z,17.47
2019-02-19T12:26:09.623Z,29.90
2019-02-19T12:28:38.984Z,10.90
2019-02-19T12:31:08.328Z,9.47
2019-02-19T12:33:37.696Z,10.87
2019-02-19T12:36:07.033Z,11.23
2019-02-19T12:38:36.419Z,9.90
2019-02-19T12:41:05.758Z,10.20
2019-02-19T12:43:35.129Z,10.00
2019-02-19T12:46:04.478Z,11.07
2019-02-19T12:48:33.855Z,13.27
2019-02-19T12:51:03.197Z,14.23
2019-02-19T12:53:32.586Z,10.67
2019-02-19T12:56:01.923Z,11.27
2019-02-19T12:58:31.333Z,16.80
2019-02-19T13:01:02.697Z,12.30
2019-02-19T13:03:32.072Z,10.10
2019-02-19T13:06:01.439Z,12.47
2019-02-19T13:08:30.828Z,16.20
2019-02-19T13:11:00.159Z,14.77
2019-02-19T13:13:29.532Z,15.90
2019-02-19T13:15:58.879Z,10.40
2019-02-19T13:18:28.244Z,9.10
2019-02-19T13:20:57.579Z,7.17
2019-02-19T13:23:26.940Z,6.40
2019-02-19T13:25:56.336Z,6.50
2019-02-19T13:28:25.695Z,5.60
2019-02-19T13:30:55.031Z,7.30
2019-02-19T13:33:24.388Z,4.83
2019-02-19T13:35:53.718Z,5.73
2019-02-19T13:38:23.095Z,5.57
2019-02-19T13:40:52.428Z,6.80
2019-02-19T13:43:21.793Z,6.33
2019-02-19T13:45:51.144Z,4.57
2019-02-19T13:48:20.516Z,4.80
2019-02-19T13:50:49.839Z,5.50
2019-02-19T13:53:53.323Z,4.37
2019-02-19T13:56:22.659Z,4.60
2019-02-19T13:58:52.011Z,5.30
2019-02-19T14:01:21.342Z,4.00
2019-02-19T14:03:50.711Z,5.07
2019-02-19T14:06:20.043Z,5.90
2019-02-19T14:08:49.379Z,4.40
2019-02-19T14:11:18.736Z,4.60
2019-02-19T14:14:02.167Z,4.73
2019-02-19T14:16:42.335Z,5.57
2019-02-19T14:19:21.225Z,5.57
2019-02-19T14:22:01.048Z,4.40
2019-02-19T14:25:04.263Z,4.77
2019-02-19T14:28:01.475Z,4.60
2019-02-19T14:30:49.792Z,4.73
2019-02-19T14:33:38.075Z,5.37
2019-02-19T14:36:35.553Z,6.07
2019-02-19T14:39:15.131Z,5.87
2019-02-19T14:42:01.802Z,5.13
2019-02-19T14:44:59.158Z,5.10
2019-02-19T14:47:50.473Z,5.80
2019-02-19T14:50:32.231Z,7.23
2019-02-19T14:53:23.528Z,6.67
2019-02-19T14:56:14.295Z,6.50
2019-02-19T14:59:05.364Z,5.97
2019-02-19T15:01:52.344Z,8.80
2019-02-19T15:04:39.231Z,6.37
2019-02-19T15:07:30.139Z,5.77
2019-02-19T15:10:30.391Z,7.10
2019-02-19T15:13:17.350Z,6.70
2019-02-19T15:16:05.655Z,5.57
2019-02-19T15:19:03.115Z,5.70
2019-02-19T15:22:03.535Z,8.57
2019-02-19T15:24:50.210Z,7.83
2019-02-19T15:27:34.763Z,7.97
2019-02-19T15:30:21.867Z,6.57
2019-02-19T15:33:25.415Z,6.70
2019-02-19T15:36:15.415Z,6.53
2019-02-19T15:39:15.599Z,6.07
2019-02-19T15:42:02.475Z,6.83
2019-02-19T15:44:49.248Z,5.40
2019-02-19T15:47:36.254Z,6.10
2019-02-19T15:50:33.862Z,6.90
2019-02-19T15:53:12.962Z,6.23
2019-02-19T15:55:59.627Z,5.00
2019-02-19T15:58:59.979Z,5.00
2019-02-19T16:01:54.175Z,5.00
2019-02-19T16:04:33.779Z,4.93
2019-02-19T16:07:33.899Z,4.63
2019-02-19T16:10:22.203Z,5.47
2019-02-19T16:12:59.755Z,6.20
2019-02-19T16:15:56.825Z,5.73
2019-02-19T16:18:47.910Z,5.53
2019-02-19T16:21:27.452Z,4.83
2019-02-19T16:24:14.014Z,4.40
2019-02-19T16:27:17.197Z,4.87
2019-02-19T16:30:11.527Z,3.97
2019-02-19T16:32:58.205Z,5.60
2019-02-19T16:35:44.963Z,4.70
2019-02-19T16:38:24.488Z,4.77
2019-02-19T16:41:27.596Z,4.00
2019-02-19T16:44:21.788Z,3.83
2019-02-19T16:47:08.602Z,4.03
2019-02-19T16:50:07.740Z,3.97
2019-02-19T16:53:03.584Z,3.10
2019-02-19T16:56:01.135Z,3.10
2019-02-19T16:59:07.189Z,4.03
2019-02-19T17:01:57.322Z,3.60
2019-02-19T17:04:44.023Z,4.07
2019-02-19T17:07:18.804Z,5.23
2019-02-19T17:10:07.771Z,4.13
2019-02-19T17:12:59.299Z,3.83
2019-02-19T17:15:38.429Z,5.40
2019-02-19T17:18:27.323Z,4.10
2019-02-19T17:21:21.816Z,5.00
2019-02-19T17:24:04.162Z,5.07
2019-02-19T17:26:52.436Z,4.47
2019-02-19T17:29:30.816Z,4.70
2019-02-19T17:32:11.612Z,4.30
2019-02-19T17:35:02.917Z,3.60
2019-02-19T17:37:45.035Z,3.63
2019-02-19T17:40:26.939Z,4.23
2019-02-19T17:43:13.507Z,4.33
2019-02-19T17:46:01.825Z,5.10
2019-02-19T17:48:52.891Z,5.10
2019-02-19T17:51:34.975Z,5.60
2019-02-19T17:54:16.855Z,5.27
2019-02-19T17:56:54.171Z,5.87
2019-02-19T17:59:54.355Z,5.43
2019-02-19T18:02:48.796Z,5.30
2019-02-19T18:05:27.517Z,4.93
2019-02-19T18:08:13.260Z,6.17
2019-02-19T18:11:00.109Z,5.50
2019-02-19T18:13:51.456Z,6.23
2019-02-19T18:16:42.772Z,7.90
2019-02-19T18:19:12.137Z,7.10
2019-02-19T18:21:41.935Z,7.27
2019-02-19T18:24:11.316Z,6.50
2019-02-19T18:26:40.647Z,7.77
2019-02-19T18:29:09.999Z,6.43
2019-02-19T18:31:39.336Z,6.20
2019-02-19T18:34:08.751Z,6.53
2019-02-19T18:36:38.079Z,6.27
2019-02-19T18:39:07.895Z,5.00
2019-02-19T18:41:37.223Z,8.33
2019-02-19T18:44:06.583Z,7.37
2019-02-19T18:46:35.931Z,7.40
2019-02-19T18:49:05.279Z,7.77
2019-02-19T18:51:34.621Z,7.28
2019-02-19T18:54:03.975Z,7.10
2019-02-19T18:56:33.320Z,8.00
2019-02-19T18:59:02.603Z,6.10
2019-02-19T19:01:31.948Z,6.03
2019-02-19T19:04:01.336Z,6.00
2019-02-19T19:06:30.715Z,5.65
2019-02-19T19:09:00.091Z,5.80
2019-02-19T19:11:29.428Z,5.63
2019-02-19T19:13:58.799Z,4.85
2019-02-19T19:16:28.139Z,4.50
2019-02-19T19:18:57.491Z,4.65
2019-02-19T19:21:26.844Z,5.40
2019-02-19T19:23:56.259Z,5.25
2019-02-19T19:26:25.604Z,6.58
2019-02-19T19:28:54.976Z,5.72
2019-02-19T19:31:32.972Z,6.75
2019-02-19T19:33:55.374Z,5.90
2019-02-19T19:36:24.732Z,6.10
2019-02-19T19:38:54.091Z,5.72
2019-02-19T19:41:23.474Z,5.28
2019-02-19T19:43:52.812Z,5.67
2019-02-19T19:46:22.193Z,6.55
2019-02-19T19:48:51.523Z,6.22
2019-02-19T19:51:20.948Z,6.60
2019-02-19T19:53:50.287Z,6.15
2019-02-19T19:56:19.715Z,5.60
2019-02-19T19:58:49.052Z,5.33
2019-02-19T20:01:18.467Z,4.20
2019-02-19T20:03:47.803Z,4.92
2019-02-19T20:06:17.167Z,4.10
2019-02-19T20:08:46.515Z,4.70
2019-02-19T20:11:15.882Z,4.47
2019-02-19T20:13:45.229Z,4.10
2019-02-19T20:16:14.584Z,4.30
2019-02-19T20:18:43.980Z,5.17
2019-02-19T20:21:13.339Z,4.85
2019-02-19T20:23:42.676Z,4.65
2019-02-19T20:26:12.044Z,4.53
2019-02-19T20:28:41.395Z,4.47
2019-02-19T20:31:10.757Z,4.80
2019-02-19T20:33:40.096Z,3.92
2019-02-19T20:36:09.460Z,4.72
2019-02-19T20:38:38.825Z,4.30
2019-02-19T20:41:08.184Z,4.05
2019-02-19T20:43:37.533Z,5.12
2019-02-19T20:46:06.937Z,5.80
2019-02-19T20:48:36.252Z,5.03
2019-02-19T20:51:05.619Z,4.58
2019-02-19T20:53:34.962Z,3.67
2019-02-19T20:56:04.323Z,3.75
2019-02-19T20:58:34.158Z,4.95
2019-02-19T21:01:03.550Z,4.83
2019-02-19T21:03:32.888Z,4.58
2019-02-19T21:06:02.263Z,4.70
2019-02-19T21:08:31.608Z,3.83
2019-02-19T21:11:00.943Z,3.80
2019-02-19T21:13:30.321Z,3.67
2019-02-19T21:15:59.660Z,4.60
2019-02-19T21:18:29.027Z,4.87
2019-02-19T21:20:58.379Z,5.55
2019-02-19T21:23:27.739Z,4.10
2019-02-19T21:25:57.108Z,5.40
2019-02-19T21:28:26.472Z,4.65
2019-02-19T21:30:55.804Z,4.85
2019-02-19T21:33:25.159Z,5.67
2019-02-19T21:35:57.936Z,5.42
2019-02-19T21:38:25.523Z,5.85
2019-02-19T21:40:54.888Z,5.08
2019-02-19T21:43:24.288Z,5.10
2019-02-19T21:45:53.611Z,5.90
2019-02-19T21:48:22.971Z,5.03
2019-02-19T21:50:52.311Z,5.65
2019-02-19T21:53:22.268Z,5.03
2019-02-19T21:55:51.603Z,4.78
2019-02-19T21:58:20.971Z,4.45
2019-02-19T22:00:50.315Z,4.03
2019-02-19T22:03:19.683Z,3.60
2019-02-19T22:05:49.019Z,4.25
2019-02-19T22:08:18.394Z,3.83
2019-02-19T22:10:47.737Z,4.42
2019-02-19T22:13:17.099Z,4.85
2019-02-19T22:15:46.455Z,6.05
2019-02-19T22:18:15.823Z,6.47
2019-02-19T22:20:50.395Z,6.50
2019-02-19T22:23:19.771Z,5.50
2019-02-19T22:25:49.111Z,5.35
2019-02-19T22:28:18.493Z,3.83
2019-02-19T22:30:47.840Z,5.50
2019-02-19T22:33:17.275Z,5.35
2019-02-19T22:35:46.649Z,3.92
2019-02-19T22:38:16.389Z,4.60
2019-02-19T22:40:45.751Z,4.37
2019-02-19T22:43:15.099Z,3.52
2019-02-19T22:45:44.467Z,3.75
2019-02-19T22:48:13.803Z,3.17
2019-02-19T22:50:43.171Z,3.42
2019-02-19T22:53:30.079Z,4.67
2019-02-19T22:56:05.335Z,4.45
2019-02-19T22:58:34.688Z,6.12
2019-02-19T23:01:17.416Z,6.25
2019-02-19T23:03:46.803Z,6.60
2019-02-19T23:06:16.137Z,5.05
2019-02-19T23:08:45.475Z,4.85
2019-02-19T23:11:14.868Z,5.85
2019-02-19T23:13:44.310Z,5.90
2019-02-19T23:16:13.725Z,5.65
2019-02-19T23:18:43.008Z,6.22
2019-02-19T23:21:12.364Z,7.05
2019-02-19T23:23:41.713Z,5.60
2019-02-19T23:26:11.095Z,6.05
2019-02-19T23:28:40.442Z,6.85
2019-02-19T23:31:09.805Z,6.45
2019-02-19T23:33:39.157Z,6.70
2019-02-19T23:36:15.811Z,5.30
2019-02-19T23:38:45.171Z,5.08
2019-02-19T23:41:14.532Z,5.42
2019-02-19T23:43:43.875Z,5.87
2019-02-19T23:46:13.235Z,6.75
2019-02-19T23:48:42.576Z,6.30
2019-02-19T23:51:11.939Z,5.65
2019-02-19T23:53:41.292Z,7.03
2019-02-19T23:56:10.582Z,8.13
2019-02-19T23:58:39.927Z,7.65
